Stations météo

réclame
Mon MeteoGroup
Salsburgh, Grande-Bretagne (99024): Température de l'air & dewpoint: 12.12.2017 14:00:00 - 18.12.2017 14:00:00 (GMT)Salsburgh, Grande-Bretagne (99024): Vitesse du vent & gusts: 12.12.2017 14:00:00 - 18.12.2017 14:00:00 (GMT)Salsburgh, Grande-Bretagne (99024): Direction du vent: 12.12.2017 14:00:00 - 18.12.2017 14:00:00 (GMT)Salsburgh, Grande-Bretagne (99024): Quantités de précipitations: 12.12.2017 14:00:00 - 18.12.2017 14:00:00 (GMT)
Date & Time tt [°C] td [°C] ff [km/h] ff [knt] fx [km/h] fx [knt] dd rr [mm]
18.12.2017 14:00:00 - - - - - - - -
18.12.2017 13:00:00 4,5 4,5 13 7 - - SW 0,0
18.12.2017 12:00:00 3,0 3,0 15 8 - - SSW 0,0
18.12.2017 11:00:00 1,8 1,8 15 8 - - S 0,0
18.12.2017 10:00:00 - - - - - - - 0,0
18.12.2017 09:00:00 1,5 1,4 11 6 - - SSW 0,0
18.12.2017 08:00:00 1,8 1,6 9 5 - - S 0,0
18.12.2017 07:00:00 2,2 1,9 8 4 - - S 0,0
18.12.2017 06:00:00 2,3 2,0 11 6 - - SW 0,0
18.12.2017 05:00:00 2,0 1,7 9 5 - - SSW 0,0
18.12.2017 04:00:00 1,1 0,7 9 5 - - SSE 0,0
18.12.2017 03:00:00 1,9 1,5 9 5 - - SW 0,0
18.12.2017 02:00:00 2,3 1,8 9 5 - - SW 0,0
18.12.2017 01:00:00 1,9 1,1 11 6 - - WSW 0,2
18.12.2017 00:00:00 2,1 1,1 16 9 - - W 0,0
17.12.2017 23:00:00 1,8 0,7 16 9 - - W 0,0
17.12.2017 22:00:00 2,3 1,1 11 6 - - SW 0,0
17.12.2017 21:00:00 2,3 1,4 8 4 - - SSW 0,0
17.12.2017 20:00:00 2,6 1,6 8 4 - - W 0,0
17.12.2017 19:00:00 2,4 1,1 16 9 - - W 0,0
17.12.2017 18:00:00 2,6 0,9 16 9 - - W 0,0
17.12.2017 17:00:00 3,3 0,9 13 7 - - W 0,0
17.12.2017 16:00:00 3,4 1,0 22 12 - - W 0,0
17.12.2017 15:00:00 4,6 2,6 21 11 50 27 W 0,0
17.12.2017 14:00:00 6,9 6,7 37 20 54 29 WNW 0,0
17.12.2017 13:00:00 7,8 7,8 31 17 46 25 W 0,2
17.12.2017 12:00:00 7,1 7,1 35 19 50 27 WSW 0,4
17.12.2017 11:00:00 5,7 5,7 28 15 - - SSW 0,4
17.12.2017 10:00:00 4,4 4,4 34 18 - - S 1,0
17.12.2017 09:00:00 2,9 2,9 35 19 50 27 S 1,6
17.12.2017 08:00:00 2,4 2,4 35 19 46 25 S 0,4
17.12.2017 07:00:00 2,6 2,6 28 15 - - S 0,0
17.12.2017 06:00:00 2,3 2,3 28 15 - - S 0,0
17.12.2017 05:00:00 2,2 2,1 26 14 - - S 0,0
17.12.2017 04:00:00 2,1 1,8 22 12 - - S 0,2
17.12.2017 03:00:00 1,5 1,0 22 12 - - S 0,0
17.12.2017 02:00:00 1,3 0,4 22 12 - - S 0,0
17.12.2017 01:00:00 1,0 0,5 21 11 - - S 0,0
17.12.2017 00:00:00 0,5 0,2 9 5 - - S -
16.12.2017 23:00:00 -0,6 -0,7 9 5 - - S 0,0
16.12.2017 22:00:00 -1,5 -1,6 11 6 - - S 0,0
16.12.2017 21:00:00 -1,9 -2,0 9 5 - - SSE 0,0
16.12.2017 20:00:00 -1,5 -1,6 9 5 - - S 0,0
16.12.2017 19:00:00 -0,7 -0,7 5 3 - - WSW 0,0
16.12.2017 18:00:00 -1,0 -1,1 8 4 - - SW 0,0
16.12.2017 17:00:00 -0,6 -0,8 8 4 - - SW 0,0
16.12.2017 16:00:00 -0,3 -0,9 5 3 - - SSW 0,0
16.12.2017 15:00:00 0,2 -0,2 5 3 - - SW 0,0
16.12.2017 14:00:00 1,5 1,3 5 3 - - SW 0,0
16.12.2017 13:00:00 0,2 0,0 5 3 - - WSW 0,0
16.12.2017 12:00:00 0,3 0,0 8 4 - - WSW 0,0
16.12.2017 11:00:00 1,0 0,3 9 5 - - WSW 0,0
16.12.2017 10:00:00 -0,3 -0,8 11 6 - - W 0,0
16.12.2017 09:00:00 -0,5 -1,1 8 4 - - WSW 0,0
16.12.2017 08:00:00 -1,3 -2,0 8 4 - - SW 0,0
16.12.2017 07:00:00 -1,1 -2,0 8 4 - - SSW 0,0
16.12.2017 06:00:00 -1,4 -2,2 9 5 - - SW 0,0
16.12.2017 05:00:00 -1,6 -2,5 11 6 - - SW 0,0
16.12.2017 04:00:00 -1,2 -2,3 11 6 - - W 0,0
16.12.2017 03:00:00 -1,6 -2,8 9 5 - - WSW 0,0
16.12.2017 02:00:00 -2,0 -2,7 5 3 - - SW 0,0
16.12.2017 01:00:00 -2,1 -3,4 8 4 - - SW 0,0
16.12.2017 00:00:00 -1,2 -3,3 15 8 - - WNW 0,0
15.12.2017 23:00:00 -0,4 -2,5 9 5 - - WNW 0,0
15.12.2017 22:00:00 -0,1 -1,7 5 3 - - W 0,0
15.12.2017 21:00:00 -0,5 -1,8 8 4 - - W 0,0
15.12.2017 20:00:00 0,0 -1,1 13 7 - - WNW 0,0
15.12.2017 19:00:00 0,4 -0,8 13 7 - - W 0,0
15.12.2017 18:00:00 - - - - - - - 0,0
15.12.2017 17:00:00 0,5 -1,8 11 6 - - W 0,0
15.12.2017 16:00:00 1,6 -2,1 16 9 - - NW 0,0
15.12.2017 15:00:00 2,5 -1,4 18 10 - - NNW 0,0
15.12.2017 14:00:00 2,6 -1,3 21 11 - - NW 0,0
15.12.2017 13:00:00 2,6 -0,9 18 10 - - NW 0,0
15.12.2017 12:00:00 2,9 -1,1 18 10 - - N 0,0
15.12.2017 11:00:00 2,4 -0,8 24 13 - - N 0,0
15.12.2017 10:00:00 1,8 -0,5 29 16 - - N 0,0
15.12.2017 09:00:00 1,7 -0,5 31 17 - - N 0,0
15.12.2017 08:00:00 1,7 0,1 24 13 - - N 0,0
15.12.2017 07:00:00 2,1 0,7 29 16 46 25 N 0,8
15.12.2017 06:00:00 1,9 0,8 29 16 - - N 0,2
15.12.2017 05:00:00 1,4 0,2 24 13 - - NNW 0,0
15.12.2017 04:00:00 -0,1 -1,1 11 6 - - WNW 0,0
15.12.2017 03:00:00 -0,3 -1,5 11 6 - - NE 0,0
15.12.2017 02:00:00 -1,0 -2,0 9 5 - - NE 0,0
15.12.2017 01:00:00 -0,9 -1,6 13 7 - - NE 0,0
15.12.2017 00:00:00 -1,1 -1,1 16 9 - - NE 0,0
14.12.2017 23:00:00 -0,6 -0,6 18 10 - - NE 0,0
14.12.2017 22:00:00 0,2 0,2 16 9 - - NE 0,0
14.12.2017 21:00:00 0,3 0,3 8 4 - - NE 0,0
14.12.2017 20:00:00 -0,3 -0,3 5 3 - - SSW 0,0
14.12.2017 19:00:00 -0,4 -0,4 8 4 - - SSW 0,0
14.12.2017 18:00:00 0,1 0,1 8 4 - - SW 0,0
14.12.2017 17:00:00 0,1 0,1 15 8 - - WSW 0,0
14.12.2017 16:00:00 -0,1 -0,1 13 7 - - WSW 0,0
14.12.2017 15:00:00 0,7 0,7 16 9 - - WNW 1,0
14.12.2017 14:00:00 0,8 0,8 18 10 - - WNW 4,4
14.12.2017 13:00:00 0,8 0,8 21 11 - - WNW 0,2
14.12.2017 12:00:00 0,5 0,5 11 6 - - WSW 0,0
14.12.2017 11:00:00 0,2 0,2 16 9 - - SSW 0,0
14.12.2017 10:00:00 -0,1 -0,1 21 11 - - SSW 0,0
14.12.2017 09:00:00 0,3 0,3 21 11 - - SSW 0,0
14.12.2017 08:00:00 0,5 0,5 16 9 - - SW 0,0
14.12.2017 07:00:00 0,1 0,1 18 10 - - SW 0,0
14.12.2017 06:00:00 0,3 0,3 28 15 - - SSW 0,0
14.12.2017 05:00:00 0,3 0,3 18 10 - - SW 0,0
14.12.2017 04:00:00 0,0 -0,1 22 12 - - SSW 0,0
14.12.2017 03:00:00 -1,2 -1,2 16 9 - - SSW 0,0
14.12.2017 02:00:00 -0,5 -0,5 18 10 - - SW 0,0
14.12.2017 01:00:00 -0,8 -0,8 22 12 - - WSW 0,0
14.12.2017 00:00:00 -1,1 -1,1 22 12 - - WSW 0,0
13.12.2017 23:00:00 -0,9 -0,9 18 10 - - SW 0,0
13.12.2017 22:00:00 -0,3 -0,3 22 12 - - W 0,0
13.12.2017 21:00:00 -0,7 -0,7 15 8 - - SSW 0,0
13.12.2017 20:00:00 -0,1 -0,1 21 11 - - WSW 0,0
13.12.2017 19:00:00 -0,3 -0,3 15 8 - - WSW 0,0
13.12.2017 18:00:00 0,0 0,0 16 9 - - W 0,0
13.12.2017 17:00:00 -0,1 -0,1 18 10 - - WSW 0,0
13.12.2017 16:00:00 0,2 0,2 24 13 46 25 W 0,2
13.12.2017 15:00:00 1,0 0,7 21 11 - - SW 0,0
13.12.2017 14:00:00 1,3 1,1 18 10 - - WSW 0,2
13.12.2017 13:00:00 0,8 0,7 18 10 - - SW 0,0
13.12.2017 12:00:00 1,3 1,2 21 11 59 32 WSW 0,4
13.12.2017 11:00:00 2,5 2,1 26 14 48 26 W 0,0
13.12.2017 10:00:00 3,2 3,0 29 16 57 31 WSW 2,4
13.12.2017 09:00:00 3,7 3,7 34 18 48 26 SW 0,4
13.12.2017 08:00:00 3,1 3,1 34 18 52 28 SSW 0,4
13.12.2017 07:00:00 3,0 2,8 34 18 52 28 SSW 1,0
13.12.2017 06:00:00 3,2 3,0 35 19 52 28 SSW 0,0
13.12.2017 05:00:00 3,0 3,0 29 16 - - SSW 0,2
13.12.2017 04:00:00 2,7 2,4 21 11 - - S 0,0
13.12.2017 03:00:00 2,6 2,1 22 12 - - SW 0,0
13.12.2017 02:00:00 1,8 1,5 18 10 - - SW 0,6
13.12.2017 01:00:00 1,9 1,6 15 8 - - SSW 0,0
13.12.2017 00:00:00 1,9 1,7 18 10 - - WSW 0,4
12.12.2017 23:00:00 2,7 2,7 26 14 - - WSW 0,0
12.12.2017 22:00:00 2,3 2,3 24 13 - - W 0,0
12.12.2017 21:00:00 2,1 2,0 21 11 - - SW 0,0
12.12.2017 20:00:00 1,4 1,2 29 16 48 26 S 1,4
12.12.2017 19:00:00 0,7 0,5 35 19 46 25 S 0,8
12.12.2017 18:00:00 1,2 0,8 26 14 - - S 0,2
12.12.2017 17:00:00 1,9 1,2 28 15 - - SSW 0,0
12.12.2017 16:00:00 1,9 0,5 24 13 - - SSW 0,0
12.12.2017 15:00:00 2,0 0,7 26 14 - - S 0,0
12.12.2017 14:00:00 1,6 0,8 24 13 - - S 0,0

tt = Température de l'air
td = dewpoint
ff = Vitesse du vent
fx = gusts
dd = Direction du vent
rr = Quantités de précipitations

stations d'obs. à proximité